Time;durP1;ratioP1;P1;durP2;ratioP2;P2;SDS_P1;SDS_P2;PMS_P1;PMS_P2;Temp;Humidity;BMP_temperature;BMP_pressure;BME280_temperature;BME280_humidity;BME280_pressure;Samples;Min_cycle;Max_cycle;Signal;HPM_P1;HPM_P2
2023/04/26 00:02:49;;;;;;;17.00;11.68;;;;;;;9.32;63.91;99905.31;1623682;88;21315;-58
2023/04/26 00:05:56;;;;;;;12.85;10.65;;;;;;;9.29;64.03;99906.53;1614659;89;21402;-58
2023/04/26 00:09:04;;;;;;;13.50;10.50;;;;;;;9.27;64.11;99901.76;1637653;87;21235;-58
2023/04/26 00:12:10;;;;;;;17.40;10.90;;;;;;;9.24;64.18;99903.48;1637871;87;21247;-57
2023/04/26 00:15:17;;;;;;;14.25;10.23;;;;;;;9.21;64.27;99906.58;1637749;87;21267;-58
2023/04/26 00:18:23;;;;;;;13.22;9.70;;;;;;;9.20;64.31;99912.22;1623845;87;21315;-57
2023/04/26 00:21:29;;;;;;;13.72;9.50;;;;;;;9.17;64.38;99909.31;1607673;89;21344;-57
2023/04/26 00:24:35;;;;;;;18.75;8.98;;;;;;;9.15;64.45;99901.80;1623795;88;21243;-58
2023/04/26 00:27:41;;;;;;;14.50;9.95;;;;;;;9.13;64.55;99915.31;1625506;88;21259;-57
2023/04/26 00:30:47;;;;;;;11.75;9.18;;;;;;;9.12;64.62;99912.26;1637601;87;21299;-57
2023/04/26 00:33:55;;;;;;;16.97;9.70;;;;;;;9.10;64.68;99919.27;1638433;84;21267;-57
2023/04/26 00:37:01;;;;;;;16.35;10.98;;;;;;;9.09;64.74;99918.41;1639278;87;21223;-58
2023/04/26 00:40:06;;;;;;;14.60;9.90;;;;;;;9.08;64.78;99917.22;1639368;87;21220;-57
2023/04/26 00:43:13;;;;;;;12.85;10.10;;;;;;;9.05;64.82;99914.31;1639508;87;21251;-58
2023/04/26 00:46:19;;;;;;;18.45;10.00;;;;;;;9.03;64.85;99912.80;1639474;87;21278;-59
2023/04/26 00:49:27;;;;;;;15.70;10.23;;;;;;;9.01;64.87;99921.67;1639528;87;21324;-59
2023/04/26 00:52:32;;;;;;;18.40;10.23;;;;;;;8.99;64.92;99919.66;1639374;87;21315;-58
2023/04/26 00:55:38;;;;;;;15.08;10.48;;;;;;;8.94;64.97;99918.80;1638684;86;21288;-58
2023/04/26 00:58:45;;;;;;;14.63;10.55;;;;;;;8.91;65.00;99921.88;1638012;87;21373;-58
2023/04/26 01:01:52;;;;;;;13.88;10.55;;;;;;;8.84;64.89;99923.63;1639422;87;21381;-58
2023/04/26 01:04:59;;;;;;;13.98;9.55;;;;;;;8.75;64.74;99925.20;1637562;87;21227;-58
2023/04/26 01:08:07;;;;;;;13.48;9.85;;;;;;;8.66;64.67;99928.45;1639612;87;21258;-58
2023/04/26 01:11:13;;;;;;;15.32;10.65;;;;;;;8.58;64.66;99926.24;1637290;87;21224;-57
2023/04/26 01:14:19;;;;;;;14.60;10.13;;;;;;;8.52;64.79;99926.95;1617731;87;21302;-59
2023/04/26 01:17:25;;;;;;;16.05;10.68;;;;;;;8.47;64.94;99925.25;1637389;87;21376;-58
2023/04/26 01:20:33;;;;;;;14.53;10.75;;;;;;;8.42;65.00;99928.50;1639551;87;21292;-57
2023/04/26 01:23:41;;;;;;;11.75;9.35;;;;;;;8.35;64.97;99920.69;1637318;87;21239;-57
2023/04/26 01:26:47;;;;;;;14.20;9.25;;;;;;;8.28;65.00;99922.39;1638947;87;21227;-58
2023/04/26 01:29:53;;;;;;;15.20;10.28;;;;;;;8.22;65.08;99921.69;1603134;89;21259;-58
2023/04/26 01:33:00;;;;;;;13.22;9.38;;;;;;;8.17;65.14;99919.13;1637835;86;21389;-58
2023/04/26 01:36:07;;;;;;;13.18;9.18;;;;;;;8.12;65.17;99921.54;1627983;87;21828;-57
2023/04/26 01:39:12;;;;;;;14.70;10.40;;;;;;;8.06;65.23;99918.97;1638695;87;21204;-57
2023/04/26 01:42:17;;;;;;;13.00;9.73;;;;;;;8.00;65.23;99914.71;1637540;87;21388;-58
2023/04/26 01:45:23;;;;;;;14.55;10.50;;;;;;;7.96;65.34;99917.45;1639464;87;21235;-58
2023/04/26 01:48:48;;;;;;;16.77;9.93;;;;;;;7.90;65.38;99918.97;1637562;87;21224;-58
2023/04/26 01:51:55;;;;;;;17.55;10.13;;;;;;;7.84;65.43;99916.07;1639124;87;21389;-58
2023/04/26 01:55:01;;;;;;;12.90;9.80;;;;;;;7.78;65.45;99911.30;1637271;87;21607;-57
2023/04/26 01:58:07;;;;;;;12.45;9.98;;;;;;;7.73;65.52;99910.95;1639098;86;21243;-57
2023/04/26 02:01:14;;;;;;;15.40;10.08;;;;;;;7.69;65.58;99910.97;1634494;87;21223;-57
2023/04/26 02:04:20;;;;;;;16.52;9.80;;;;;;;7.60;65.59;99912.32;1638900;87;21263;-57
2023/04/26 02:07:25;;;;;;;18.77;10.18;;;;;;;7.54;65.61;99922.53;1603147;89;21312;-57
2023/04/26 02:10:32;;;;;;;15.03;10.03;;;;;;;7.49;65.69;99915.37;1638522;87;21373;-57
2023/04/26 02:13:39;;;;;;;15.80;10.68;;;;;;;7.43;65.72;99922.85;1637768;87;21262;-58
2023/04/26 02:16:45;;;;;;;21.07;10.58;;;;;;;7.38;65.80;99923.86;1639129;86;21255;-58
2023/04/26 02:19:51;;;;;;;12.28;10.80;;;;;;;7.31;65.81;99921.45;1637630;87;21219;-57
2023/04/26 02:22:57;;;;;;;15.13;10.23;;;;;;;7.24;65.80;99924.51;1639164;87;21230;-57
2023/04/26 02:26:06;;;;;;;17.60;11.25;;;;;;;7.18;65.88;99927.86;1637312;87;21227;-58
2023/04/26 02:29:12;;;;;;;16.15;11.45;;;;;;;7.16;66.00;99926.34;1639006;86;21255;-58
2023/04/26 02:32:21;;;;;;;13.62;10.65;;;;;;;7.10;66.04;99934.64;1639130;86;21220;-58
2023/04/26 02:35:25;;;;;;;19.30;10.48;;;;;;;7.07;66.13;99933.61;1635942;84;21263;-58
2023/04/26 02:38:32;;;;;;;18.92;11.38;;;;;;;7.05;66.28;99942.47;1639527;86;21311;-59
2023/04/26 02:41:39;;;;;;;18.57;11.48;;;;;;;7.03;66.36;99945.86;1602930;89;21268;-58
2023/04/26 02:44:46;;;;;;;17.48;11.00;;;;;;;7.02;66.45;99952.33;1638771;87;21214;-58
2023/04/26 02:47:53;;;;;;;20.92;11.38;;;;;;;7.02;66.56;99948.75;1637221;87;21331;-59
2023/04/26 02:50:58;;;;;;;16.10;11.63;;;;;;;6.99;66.58;99949.91;1639586;86;21271;-57
2023/04/26 02:54:05;;;;;;;17.92;12.10;;;;;;;6.98;66.65;99945.49;1637274;87;21243;-57
2023/04/26 02:57:11;;;;;;;16.07;11.22;;;;;;;6.97;66.73;99953.32;1639613;87;21258;-57
2023/04/26 03:00:21;;;;;;;14.58;10.53;;;;;;;6.97;66.78;99960.63;1637598;87;21231;-58
2023/04/26 03:03:27;;;;;;;12.18;9.25;;;;;;;6.96;66.79;99948.88;1638410;87;21258;-57
2023/04/26 03:06:33;;;;;;;21.80;11.63;;;;;;;6.97;66.83;99956.05;1637611;87;21262;-58
2023/04/26 03:09:40;;;;;;;18.80;11.18;;;;;;;7.00;66.88;99957.08;1639152;86;21243;-58
2023/04/26 03:12:47;;;;;;;19.67;10.90;;;;;;;7.04;66.96;99955.71;1635490;87;21252;-58
2023/04/26 03:15:53;;;;;;;19.15;10.85;;;;;;;7.12;67.05;99959.83;1639025;87;21251;-59
2023/04/26 03:19:00;;;;;;;20.57;11.12;;;;;;;7.22;67.04;99962.42;1637312;87;21259;-59
2023/04/26 03:22:10;;;;;;;18.35;10.85;;;;;;;7.30;67.07;99963.31;1639303;86;21323;-59
2023/04/26 03:25:17;;;;;;;14.55;10.63;;;;;;;7.42;67.15;99968.78;1637348;87;21238;-59
2023/04/26 03:28:23;;;;;;;17.62;10.90;;;;;;;7.55;67.29;99967.80;1639286;86;21274;-59
2023/04/26 03:31:29;;;;;;;15.70;11.33;;;;;;;7.70;67.40;99973.95;1637532;87;21239;-58
2023/04/26 03:34:34;;;;;;;22.05;15.50;;;;;;;7.86;67.52;99967.17;1637291;87;21287;-58
2023/04/26 03:37:42;;;;;;;19.37;13.10;;;;;;;8.03;67.66;99971.61;1628100;87;21370;-59
2023/04/26 03:40:51;;;;;;;16.82;11.45;;;;;;;8.21;67.80;99970.94;1620919;88;21236;-59
2023/04/26 03:43:56;;;;;;;15.98;11.03;;;;;;;8.38;67.91;99978.97;1621237;87;21224;-59
2023/04/26 03:47:04;;;;;;;16.52;10.85;;;;;;;8.56;67.99;99978.25;1628092;88;21259;-59
2023/04/26 03:50:10;;;;;;;23.40;14.68;;;;;;;8.74;68.06;99988.97;1618961;88;21431;-59
2023/04/26 03:53:17;;;;;;;27.80;14.90;;;;;;;8.89;68.08;99984.51;1611621;89;21912;-59
2023/04/26 03:56:24;;;;;;;16.27;10.25;;;;;;;9.03;68.05;99992.83;1597240;88;21219;-60
2023/04/26 03:59:30;;;;;;;16.97;9.45;;;;;;;9.18;68.04;99988.83;1607079;89;21302;-59
2023/04/26 04:02:35;;;;;;;15.43;8.70;;;;;;;9.33;68.03;99993.91;1596894;89;21279;-59
2023/04/26 04:05:44;;;;;;;14.15;8.88;;;;;;;9.47;68.00;99994.52;1609239;89;21243;-59
2023/04/26 04:08:50;;;;;;;12.68;7.85;;;;;;;9.64;68.00;99996.66;1627574;88;21331;-60
2023/04/26 04:11:58;;;;;;;13.80;8.45;;;;;;;9.80;67.98;99997.40;1596923;89;21307;-58
2023/04/26 04:14:59;;;;;;;11.88;7.95;;;;;;;9.97;67.98;100001.72;1609083;89;21244;-58
2023/04/26 04:18:08;;;;;;;13.03;8.43;;;;;;;10.12;67.99;100003.20;1597419;89;21630;-58
2023/04/26 04:21:14;;;;;;;10.80;7.42;;;;;;;10.25;67.97;100009.78;1611640;89;21361;-58
2023/04/26 04:24:20;;;;;;;13.95;6.92;;;;;;;10.39;67.98;100008.97;1627867;88;21215;-59
2023/04/26 04:27:27;;;;;;;11.85;7.42;;;;;;;10.52;67.98;100013.31;1600655;89;21267;-59
2023/04/26 04:30:33;;;;;;;13.08;7.20;;;;;;;10.68;67.99;100011.45;1627864;88;21234;-59
2023/04/26 04:33:39;;;;;;;21.55;7.58;;;;;;;10.83;67.94;100017.28;1618810;88;21244;-58
2023/04/26 04:36:45;;;;;;;16.60;7.92;;;;;;;10.95;67.90;100006.73;1628626;85;21641;-60
2023/04/26 04:39:50;;;;;;;12.28;8.18;;;;;;;11.05;67.81;100006.77;1639204;87;21611;-58
2023/04/26 04:42:59;;;;;;;13.05;8.25;;;;;;;11.14;67.75;100010.28;1639595;87;21259;-59
2023/04/26 04:46:05;;;;;;;14.95;7.90;;;;;;;11.23;67.72;100007.26;1636534;87;21231;-58
2023/04/26 04:49:11;;;;;;;13.83;7.35;;;;;;;11.34;67.71;100010.89;1638149;87;21263;-58
2023/04/26 04:52:18;;;;;;;15.83;7.25;;;;;;;11.47;67.72;100009.71;1636343;86;21278;-59
2023/04/26 04:55:25;;;;;;;12.13;7.10;;;;;;;11.60;67.72;100008.52;1639070;85;21336;-58
2023/04/26 04:58:26;;;;;;;33.88;14.80;;;;;;;11.74;67.71;100012.30;1612579;89;21290;-57
2023/04/26 05:01:19;;;;;;;12.65;7.40;;;;;;;11.89;67.78;100013.95;1629984;86;21344;-59
2023/04/26 05:04:27;;;;;;;14.07;6.92;;;;;;;12.04;67.77;100005.17;1637484;86;21247;-59
2023/04/26 05:07:33;;;;;;;17.87;6.95;;;;;;;12.21;67.77;100000.81;1645111;85;21265;-57
2023/04/26 05:10:41;;;;;;;21.30;6.62;;;;;;;12.37;67.76;100009.62;1620496;86;22094;-58
2023/04/26 05:13:49;;;;;;;19.12;6.60;;;;;;;12.56;67.85;100013.62;1610965;89;21286;-58
2023/04/26 05:16:57;;;;;;;25.32;7.30;;;;;;;12.73;67.89;100010.91;1623060;86;21248;-55
2023/04/26 05:20:05;;;;;;;20.40;5.62;;;;;;;12.92;67.92;100013.79;1635893;86;21219;-56
2023/04/26 05:23:11;;;;;;;21.23;6.00;;;;;;;13.08;67.76;100005.83;1634697;87;21271;-56
2023/04/26 05:26:20;;;;;;;11.65;5.53;;;;;;;13.21;67.67;100012.24;1634167;87;21380;-56
2023/04/26 05:29:41;;;;;;;11.38;5.30;;;;;;;13.39;67.63;100011.20;1632561;87;21295;-57
2023/04/26 05:33:05;;;;;;;16.12;8.58;;;;;;;13.57;67.57;100002.93;1630730;87;21259;-57
2023/04/26 05:36:13;;;;;;;13.98;5.97;;;;;;;13.76;67.52;100006.30;1637001;86;21247;-58
2023/04/26 05:39:20;;;;;;;14.38;5.50;;;;;;;13.93;67.50;100004.88;1634751;85;21322;-58
2023/04/26 05:42:25;;;;;;;10.70;5.00;;;;;;;14.06;67.36;100004.92;1608111;87;21797;-57
2023/04/26 05:45:31;;;;;;;7.72;5.33;;;;;;;14.16;67.17;100002.63;1614179;87;21556;-58
2023/04/26 05:48:38;;;;;;;13.43;6.83;;;;;;;14.22;66.95;100000.41;1637773;85;21234;-59
2023/04/26 05:51:43;;;;;;;12.90;5.65;;;;;;;14.36;66.97;99999.41;1601928;88;21865;-58
2023/04/26 05:54:49;;;;;;;12.10;4.40;;;;;;;14.46;66.86;100005.37;1602288;89;21245;-58
2023/04/26 05:57:57;;;;;;;9.00;4.10;;;;;;;14.54;66.68;100002.41;1632228;87;21350;-58
2023/04/26 06:01:05;;;;;;;11.40;4.53;;;;;;;14.63;66.60;99995.63;1627148;88;21253;-56
2023/04/26 06:04:09;;;;;;;21.75;6.87;;;;;;;14.73;66.64;99998.27;1631668;87;21830;-58
2023/04/26 06:07:17;;;;;;;12.05;6.22;;;;;;;14.83;66.50;100003.36;1636712;85;21820;-56
2023/04/26 06:10:25;;;;;;;10.23;4.53;;;;;;;14.93;66.44;99997.75;1595506;87;21247;-56
2023/04/26 06:13:30;;;;;;;7.20;4.08;;;;;;;15.03;66.41;99992.33;1612689;87;21279;-56
2023/04/26 06:16:37;;;;;;;8.03;3.70;;;;;;;15.14;66.50;99999.95;1635969;87;21255;-58
2023/04/26 06:19:45;;;;;;;7.33;4.22;;;;;;;15.23;66.43;99998.12;1611873;89;21314;-61
2023/04/26 06:22:51;;;;;;;9.98;3.45;;;;;;;15.34;66.31;100006.26;1620651;86;21836;-58
2023/04/26 06:26:00;;;;;;;6.97;2.95;;;;;;;15.45;66.25;100005.11;1663180;86;21296;-57
2023/04/26 06:29:06;;;;;;;6.30;3.40;;;;;;;15.56;66.00;100011.33;1663399;86;21204;-57
2023/04/26 06:32:11;;;;;;;7.03;3.08;;;;;;;15.61;65.80;100015.67;1663550;86;21235;-57
2023/04/26 06:35:19;;;;;;;10.00;3.77;;;;;;;15.68;65.69;100012.90;1637914;86;21283;-58
2023/04/26 06:38:25;;;;;;;11.60;3.22;;;;;;;15.74;65.61;100010.12;1624636;86;21816;-59
2023/04/26 06:41:32;;;;;;;6.83;3.50;;;;;;;15.81;65.46;100005.40;1626267;87;21609;-57
2023/04/26 06:44:40;;;;;;;5.80;2.80;;;;;;;15.89;65.21;100013.44;1635231;87;21251;-57
2023/04/26 06:47:46;;;;;;;4.33;2.62;;;;;;;15.95;64.99;100011.73;1619397;87;21248;-57
2023/04/26 06:50:52;;;;;;;9.08;3.72;;;;;;;16.06;64.88;100011.86;1633487;87;21799;-58
2023/04/26 06:54:00;;;;;;;6.75;2.45;;;;;;;16.25;64.95;100008.70;1634204;86;21224;-57
2023/04/26 06:57:07;;;;;;;5.47;3.02;;;;;;;16.37;64.74;100011.05;1634778;87;21813;-57
2023/04/26 07:00:14;;;;;;;8.15;2.98;;;;;;;16.40;64.60;100016.98;1634473;87;21244;-58
2023/04/26 07:03:22;;;;;;;7.60;2.22;;;;;;;16.46;64.58;100019.42;1618858;86;21298;-58
2023/04/26 07:06:32;;;;;;;7.70;2.62;;;;;;;16.56;64.43;100024.45;1634209;87;21559;-58
2023/04/26 07:09:39;;;;;;;6.83;2.50;;;;;;;16.67;64.32;100019.59;1621009;87;21195;-58
2023/04/26 07:12:45;;;;;;;7.00;2.60;;;;;;;16.87;64.21;100028.59;1619786;87;21816;-59
2023/04/26 07:15:51;;;;;;;5.80;2.22;;;;;;;17.04;64.06;100021.42;1635943;87;21306;-60
2023/04/26 07:19:00;;;;;;;8.58;2.45;;;;;;;17.23;63.88;100028.17;1638164;86;21267;-58
2023/04/26 07:22:04;;;;;;;4.47;2.12;;;;;;;17.41;63.73;100021.27;1638466;85;21298;-59
2023/04/26 07:25:11;;;;;;;3.22;1.80;;;;;;;17.58;63.48;100026.53;1604344;87;21791;-58
2023/04/26 07:28:16;;;;;;;6.15;1.95;;;;;;;17.75;63.28;100025.40;1640943;86;21769;-59
2023/04/26 07:31:22;;;;;;;7.42;1.87;;;;;;;17.92;63.05;100015.39;1623484;87;21242;-60
2023/04/26 07:34:29;;;;;;;4.28;1.82;;;;;;;18.08;62.74;100018.05;1637476;87;21230;-59
2023/04/26 07:37:35;;;;;;;3.45;1.52;;;;;;;18.23;62.44;100020.75;1636040;87;21234;-59
2023/04/26 07:40:42;;;;;;;2.58;1.57;;;;;;;18.33;62.24;100026.55;1638918;86;21825;-59
2023/04/26 07:43:47;;;;;;;8.18;1.70;;;;;;;18.43;61.94;100021.34;1613558;87;21361;-60
2023/04/26 07:46:55;;;;;;;6.17;2.10;;;;;;;18.52;61.56;100021.86;1621889;88;21805;-61
2023/04/26 07:50:03;;;;;;;12.33;2.60;;;;;;;18.59;61.34;100019.81;1622745;87;21316;-59
2023/04/26 07:53:08;;;;;;;6.30;2.40;;;;;;;18.64;61.29;100022.73;1623025;87;21295;-55
2023/04/26 07:56:14;;;;;;;6.60;2.75;;;;;;;18.69;61.23;100020.09;1618125;87;21822;-54
2023/04/26 07:59:23;;;;;;;6.12;2.67;;;;;;;18.72;61.00;100016.31;1600621;89;21244;-55
2023/04/26 08:02:28;;;;;;;4.17;2.12;;;;;;;18.74;60.80;100018.28;1632635;87;21259;-55
2023/04/26 08:05:38;;;;;;;6.25;2.98;;;;;;;18.67;60.52;100018.95;1600402;89;21247;-54
2023/04/26 08:08:49;;;;;;;5.78;2.77;;;;;;;18.60;60.30;100019.58;1623412;87;21745;-54
2023/04/26 08:11:57;;;;;;;4.85;2.30;;;;;;;18.54;60.22;100022.45;1623008;86;21621;-55
2023/04/26 08:15:04;;;;;;;6.10;3.08;;;;;;;18.44;59.93;100024.40;1624817;86;22038;-55
2023/04/26 08:18:04;;;;;;;7.85;2.92;;;;;;;18.30;59.61;100021.48;1626226;86;21837;-56
2023/04/26 08:21:10;;;;;;;4.08;2.35;;;;;;;18.25;59.57;100014.41;1617226;88;21252;-57
2023/04/26 08:24:17;;;;;;;8.63;2.45;;;;;;;18.27;59.59;100016.41;1602064;89;21312;-55
2023/04/26 08:27:24;;;;;;;6.78;2.55;;;;;;;18.25;59.50;100016.35;1602631;89;21848;-56
2023/04/26 08:30:30;;;;;;;6.58;2.67;;;;;;;18.28;59.45;100019.51;1600754;87;21256;-56
2023/04/26 08:33:37;;;;;;;6.00;2.70;;;;;;;18.29;59.20;100005.95;1604390;88;21322;-55
2023/04/26 08:36:47;;;;;;;8.58;3.00;;;;;;;18.30;59.04;100010.40;1623108;88;21255;-57
2023/04/26 08:39:53;;;;;;;10.03;3.10;;;;;;;18.27;58.94;100015.55;1623883;87;21782;-56
2023/04/26 08:42:59;;;;;;;7.10;3.40;;;;;;;18.26;58.86;100007.80;1629710;87;21606;-57
2023/04/26 08:46:05;;;;;;;6.97;3.40;;;;;;;18.36;58.94;100003.91;1595213;89;21312;-55
2023/04/26 08:49:34;;;;;;;6.83;2.92;;;;;;;18.50;58.91;99999.92;1635978;86;21244;-56
2023/04/26 08:52:40;;;;;;;7.17;3.27;;;;;;;18.56;58.63;99996.20;1634405;87;21307;-57
2023/04/26 08:55:48;;;;;;;4.45;2.90;;;;;;;18.55;58.37;99997.82;1633490;87;21753;-56
2023/04/26 08:58:54;;;;;;;8.55;3.70;;;;;;;18.59;58.27;100000.41;1634792;87;21788;-55
2023/04/26 09:02:01;;;;;;;6.42;3.30;;;;;;;18.54;57.98;99991.95;1628419;86;21764;-61
2023/04/26 09:05:07;;;;;;;6.83;3.45;;;;;;;18.68;58.01;99990.69;1611721;87;21306;-56
2023/04/26 09:08:13;;;;;;;12.37;3.33;;;;;;;18.83;57.78;99986.37;1632400;86;21242;-55
2023/04/26 09:11:21;;;;;;;9.28;3.33;;;;;;;18.93;57.63;99986.61;1596535;90;21310;-57
2023/04/26 09:14:26;;;;;;;15.55;4.12;;;;;;;19.01;57.48;99984.87;1594058;89;21288;-55
2023/04/26 09:17:40;;;;;;;11.53;4.15;;;;;;;19.12;57.33;99977.66;1606253;89;21638;-57
2023/04/26 09:20:48;;;;;;;8.43;3.33;;;;;;;19.28;57.22;99978.36;1582536;90;21251;-56
2023/04/26 09:24:07;;;;;;;6.67;3.40;;;;;;;19.23;56.70;99974.03;1569684;91;21892;-55
2023/04/26 09:27:15;;;;;;;7.70;3.00;;;;;;;19.09;56.40;99970.64;1606859;89;21271;-56
2023/04/26 09:30:24;;;;;;;6.22;3.40;;;;;;;19.12;56.47;99967.38;1623838;86;21220;-56
2023/04/26 09:33:31;;;;;;;7.42;3.58;;;;;;;19.19;56.24;99963.09;1599164;88;21539;-56
2023/04/26 09:36:36;;;;;;;7.58;2.92;;;;;;;19.27;56.12;99962.20;1606871;89;21323;-57
2023/04/26 09:39:48;;;;;;;12.23;3.85;;;;;;;19.45;55.99;99959.02;1606780;89;21255;-57
2023/04/26 09:42:53;;;;;;;8.98;3.35;;;;;;;19.60;55.81;99946.88;1608873;86;21332;-57
2023/04/26 09:46:01;;;;;;;11.97;3.65;;;;;;;19.90;55.71;99948.34;1608037;88;21317;-57
2023/04/26 09:49:10;;;;;;;7.12;3.12;;;;;;;20.21;55.55;99945.66;1626426;86;21248;-56
2023/04/26 09:52:16;;;;;;;8.23;2.72;;;;;;;20.44;55.40;99949.69;1607985;86;22362;-57
2023/04/26 09:55:36;;;;;;;4.42;2.60;;;;;;;20.38;54.77;99947.92;1608832;88;21797;-56
2023/04/26 09:58:42;;;;;;;7.37;2.67;;;;;;;20.09;54.19;99955.95;1582865;89;21381;-57
2023/04/26 10:01:49;;;;;;;6.37;2.90;;;;;;;19.91;53.99;99948.66;1598683;89;21260;-55
2023/04/26 10:05:00;;;;;;;4.83;2.85;;;;;;;20.02;54.10;99958.03;1621237;86;21773;-56
2023/04/26 10:08:08;;;;;;;4.62;2.90;;;;;;;20.31;54.11;99952.81;1617381;88;21299;-59
2023/04/26 10:11:16;;;;;;;11.20;3.67;;;;;;;20.61;54.00;99960.32;1619981;88;21278;-59
2023/04/26 10:14:20;;;;;;;11.33;2.90;;;;;;;20.78;53.79;99956.99;1597783;88;21240;-59
2023/04/26 10:17:26;;;;;;;8.35;2.60;;;;;;;20.90;53.60;99948.00;1625081;88;21255;-63
2023/04/26 10:20:35;;;;;;;6.90;2.60;;;;;;;21.09;53.44;99950.86;1614720;88;21296;-60
2023/04/26 10:23:42;;;;;;;6.95;2.58;;;;;;;21.20;53.03;99951.30;1623409;86;21606;-60
2023/04/26 10:27:00;;;;;;;6.45;2.52;;;;;;;21.31;52.77;99948.97;1606244;88;21292;-60
2023/04/26 10:30:13;;;;;;;6.95;2.90;;;;;;;21.40;52.49;99948.84;1616708;87;21296;-61
2023/04/26 10:33:19;;;;;;;5.75;2.85;;;;;;;21.42;52.22;99948.59;1630062;87;21236;-61
2023/04/26 10:36:20;;;;;;;7.53;2.65;;;;;;;21.71;52.26;99941.19;1628397;86;21508;-60
2023/04/26 10:39:28;;;;;;;7.42;2.85;;;;;;;22.06;52.04;99936.62;1599445;87;21774;-60
2023/04/26 10:42:35;;;;;;;8.63;2.98;;;;;;;22.16;51.67;99944.58;1619588;87;21228;-59
2023/04/26 10:45:42;;;;;;;6.15;2.33;;;;;;;22.26;51.46;99938.81;1599809;87;21691;-60
2023/04/26 10:48:48;;;;;;;7.53;2.47;;;;;;;22.42;51.14;99933.11;1601124;89;21777;-60
2023/04/26 10:52:19;;;;;;;4.40;2.72;;;;;;;22.44;50.72;99938.45;1617985;86;21371;-61
2023/04/26 10:55:47;;;;;;;10.25;3.58;;;;;;;22.36;50.38;99930.56;1623498;86;21271;-60
2023/04/26 10:58:55;;;;;;;11.25;3.58;;;;;;;22.18;50.00;99928.40;1625778;88;21228;-62
2023/04/26 11:02:02;;;;;;;8.58;2.62;;;;;;;22.16;49.96;99926.45;1579315;88;21299;-62
2023/04/26 11:05:09;;;;;;;9.40;3.02;;;;;;;22.29;49.90;99931.31;1571640;89;22131;-61
2023/04/26 11:08:25;;;;;;;7.05;3.08;;;;;;;22.47;49.90;99926.19;1569861;90;21834;-60
2023/04/26 11:11:32;;;;;;;7.97;3.27;;;;;;;22.49;49.57;99926.78;1585181;89;21257;-60
2023/04/26 11:14:40;;;;;;;6.30;3.35;;;;;;;22.45;49.26;99930.36;1584746;90;21619;-59
2023/04/26 11:17:47;;;;;;;8.23;3.60;;;;;;;22.20;48.74;99927.59;1626483;87;21251;-61
2023/04/26 11:20:57;;;;;;;9.58;3.70;;;;;;;22.04;48.51;99931.31;1599312;89;21646;-61
2023/04/26 11:24:02;;;;;;;9.60;4.28;;;;;;;21.80;48.09;99922.94;1609873;86;21351;-60
2023/04/26 11:27:09;;;;;;;11.60;4.33;;;;;;;21.80;48.23;99924.33;1626378;88;21260;-61
2023/04/26 11:30:16;;;;;;;19.05;7.25;;;;;;;21.99;48.39;99907.55;1611436;88;21287;-62
2023/04/26 11:33:26;;;;;;;27.75;11.43;;;;;;;22.39;48.72;99909.11;1627489;87;21847;-62
2023/04/26 11:36:33;;;;;;;20.55;9.65;;;;;;;22.77;48.55;99909.75;1621583;86;21263;-61
2023/04/26 11:39:42;;;;;;;17.82;7.75;;;;;;;23.02;48.19;99910.52;1618348;86;21249;-63
2023/04/26 11:42:54;;;;;;;36.73;6.08;;;;;;;23.16;47.88;99906.15;1625176;88;21424;-62
2023/04/26 11:46:08;;;;;;;11.93;4.03;;;;;;;23.23;47.49;99896.99;1628206;83;22060;-62
2023/04/26 11:49:14;;;;;;;9.05;3.52;;;;;;;23.33;47.34;99902.65;1627944;86;21264;-60
2023/04/26 11:52:19;;;;;;;7.90;3.50;;;;;;;23.41;46.96;99899.34;1627921;86;21631;-59
2023/04/26 11:55:27;;;;;;;12.18;2.98;;;;;;;23.17;46.26;99889.66;1618649;88;21893;-59
2023/04/26 11:58:36;;;;;;;6.03;2.50;;;;;;;23.05;46.01;99903.00;1594773;88;21642;-59
2023/04/26 12:01:42;;;;;;;4.15;2.05;;;;;;;23.09;46.01;99899.40;1609342;88;21805;-62
2023/04/26 12:04:50;;;;;;;5.28;2.15;;;;;;;23.19;45.84;99898.62;1606636;88;21314;-61
2023/04/26 12:08:02;;;;;;;5.70;2.37;;;;;;;23.18;45.46;99885.78;1610949;87;21317;-56
2023/04/26 12:11:12;;;;;;;7.25;2.77;;;;;;;23.25;45.36;99892.84;1600234;89;21256;-57
2023/04/26 12:14:17;;;;;;;9.13;2.80;;;;;;;23.24;44.95;99885.55;1590987;88;21243;-57
2023/04/26 12:17:23;;;;;;;6.30;2.20;;;;;;;23.22;44.84;99885.52;1604964;88;21253;-57
2023/04/26 12:20:40;;;;;;;6.78;2.25;;;;;;;23.44;44.95;99887.63;1590102;88;22177;-58
2023/04/26 12:23:47;;;;;;;5.85;1.90;;;;;;;23.71;44.74;99888.31;1621435;88;21261;-58
2023/04/26 12:26:52;;;;;;;6.40;2.20;;;;;;;23.78;44.26;99886.13;1595842;89;21302;-58
2023/04/26 12:29:58;;;;;;;5.87;2.08;;;;;;;23.83;43.92;99877.76;1615032;86;21544;-57
2023/04/26 12:33:03;;;;;;;4.47;1.75;;;;;;;23.97;43.66;99885.94;1618969;87;22210;-58
2023/04/26 12:36:16;;;;;;;3.08;1.90;;;;;;;23.96;43.29;99889.80;1617546;88;21236;-58
2023/04/26 12:39:22;;;;;;;4.95;1.87;;;;;;;23.93;42.93;99886.73;1594693;89;21247;-57
2023/04/26 12:42:28;;;;;;;6.22;2.12;;;;;;;23.70;42.43;99888.05;1621606;88;21224;-57
2023/04/26 12:45:35;;;;;;;4.00;2.17;;;;;;;23.54;42.19;99889.08;1627079;88;22082;-58
2023/04/26 12:48:42;;;;;;;4.97;2.00;;;;;;;23.40;42.08;99893.48;1632637;87;21291;-58
2023/04/26 12:51:49;;;;;;;5.03;2.33;;;;;;;23.50;42.09;99881.80;1602649;88;22107;-57
2023/04/26 12:54:55;;;;;;;2.92;1.92;;;;;;;23.63;41.94;99876.27;1605097;88;21579;-61
2023/04/26 12:58:06;;;;;;;6.55;1.80;;;;;;;23.54;41.54;99884.34;1608382;88;21345;-60
2023/04/26 13:01:12;;;;;;;4.72;1.82;;;;;;;23.38;41.26;99885.92;1600081;88;21241;-60
2023/04/26 13:04:18;;;;;;;4.37;2.30;;;;;;;23.20;41.03;99890.52;1600817;88;21226;-60
2023/04/26 13:07:25;;;;;;;7.67;2.75;;;;;;;23.04;40.74;99890.16;1596958;88;21888;-59
2023/04/26 13:10:31;;;;;;;6.47;2.00;;;;;;;22.70;40.47;99895.20;1619474;87;21277;-60
2023/04/26 13:13:39;;;;;;;4.87;2.02;;;;;;;22.55;40.48;99890.05;1600488;89;21277;-59
2023/04/26 13:16:45;;;;;;;5.22;2.20;;;;;;;22.36;40.29;99893.72;1593601;90;21314;-61
2023/04/26 13:19:51;;;;;;;7.80;2.17;;;;;;;22.08;40.06;99889.81;1632254;86;21666;-61
2023/04/26 13:22:58;;;;;;;3.30;1.80;;;;;;;21.85;40.05;99892.91;1599411;88;21821;-60
2023/04/26 13:26:04;;;;;;;4.53;1.70;;;;;;;21.72;40.01;99888.52;1575108;91;21291;-61
2023/04/26 13:29:14;;;;;;;9.15;1.62;;;;;;;21.70;40.05;99890.75;1575142;91;21820;-61
2023/04/26 13:32:20;;;;;;;10.32;2.70;;;;;;;21.86;40.25;99889.87;1596270;88;21316;-59
2023/04/26 13:35:27;;;;;;;7.83;2.25;;;;;;;22.13;40.22;99880.12;1621064;88;21208;-61
2023/04/26 13:38:35;;;;;;;4.10;2.00;;;;;;;22.25;40.03;99886.36;1603474;89;21257;-61
2023/04/26 13:41:41;;;;;;;6.08;2.42;;;;;;;22.33;39.91;99886.43;1609963;89;21272;-62
2023/04/26 13:44:47;;;;;;;4.75;1.92;;;;;;;22.32;39.75;99891.73;1608119;88;21301;-60
2023/04/26 13:47:54;;;;;;;5.33;2.00;;;;;;;22.33;39.62;99886.43;1616237;83;21260;-59
2023/04/26 13:51:01;;;;;;;8.73;1.85;;;;;;;22.26;39.47;99887.22;1619437;86;21525;-61
2023/04/26 13:54:03;;;;;;;6.55;2.08;;;;;;;22.41;39.47;99884.56;1621482;88;21819;-61
2023/04/26 13:57:10;;;;;;;3.85;1.67;;;;;;;22.57;39.39;99886.41;1620654;87;21268;-60
2023/04/26 14:00:16;;;;;;;4.22;1.92;;;;;;;22.57;39.20;99887.81;1634196;86;21230;-59
2023/04/26 14:03:22;;;;;;;4.28;2.20;;;;;;;22.48;39.07;99888.84;1633084;87;21301;-58
2023/04/26 14:06:28;;;;;;;6.67;1.50;;;;;;;22.35;38.99;99887.88;1619131;88;21244;-60
2023/04/26 14:09:34;;;;;;;5.60;2.92;;;;;;;22.23;38.94;99886.63;1636476;86;21239;-58
2023/04/26 14:12:41;;;;;;;9.68;2.60;;;;;;;22.14;38.88;99885.97;1612402;86;21847;-59
2023/04/26 14:15:46;;;;;;;3.52;1.60;;;;;;;22.12;38.90;99895.14;1603184;88;21252;-56
2023/04/26 14:18:55;;;;;;;8.35;2.25;;;;;;;22.21;38.94;99894.98;1649731;86;21219;-59
2023/04/26 14:22:02;;;;;;;4.35;1.70;;;;;;;22.25;38.82;99892.52;1622084;87;21264;-58
2023/04/26 14:25:07;;;;;;;6.22;1.62;;;;;;;22.29;38.85;99895.91;1620106;88;21230;-59
2023/04/26 14:28:15;;;;;;;2.75;1.67;;;;;;;22.31;38.78;99895.06;1631004;87;21810;-59
2023/04/26 14:31:21;;;;;;;3.87;1.70;;;;;;;22.33;38.79;99890.62;1632483;86;21882;-59
2023/04/26 14:34:28;;;;;;;2.72;1.40;;;;;;;22.37;38.85;99901.01;1633279;87;21618;-59